Iowana, Mississippi
Current Conditions -  °F | °C
As of 11:53 AM on Thursday 30 Oct 2014 (Local Time) from KPQL Reporting Station
Clear Clear  
Wind Chill: 71°   Ceiling: Unl
Heat Index: 71°   Visibility: 10mi
Dew Point: 42°   Wind: 14mph
Humidity: 35%   Direction: 30°NNE
Pressure: 30.09"   Gusts: 18mph
Location:  30.4104°N, 88.6488°W
Report Text: KPQL 301653Z 03012G16KT 10SM CLR 22/06 A3009 RMK AO2 SLP189 T02170056
Loading
Personal Weather Stations






























Interactive Weather Map
Tropical Storm Tracking
New forecast layout! Learn more

10-Day Weather Forecast

Advertisements
Track Severe Weather on mobile